createdAt,value
2018-09-26T00:06:38.320Z,2.00
2018-09-26T00:16:42.101Z,1.97
2018-09-26T00:26:45.249Z,1.90
2018-09-26T00:36:49.082Z,1.93
2018-09-26T00:46:52.188Z,1.70
2018-09-26T00:56:57.213Z,2.10
2018-09-26T01:07:00.318Z,1.87
2018-09-26T01:17:03.741Z,2.00
2018-09-26T01:27:06.917Z,1.70
2018-09-26T01:37:10.061Z,1.80
2018-09-26T01:47:13.692Z,1.80
2018-09-26T01:57:17.459Z,1.90
2018-09-26T02:07:21.185Z,2.00
2018-09-26T02:17:24.323Z,2.58
2018-09-26T02:27:27.490Z,2.17
2018-09-26T02:37:31.223Z,2.27
2018-09-26T02:47:34.796Z,2.30
2018-09-26T02:57:38.803Z,2.23
2018-09-26T03:07:42.735Z,2.60
2018-09-26T03:17:46.359Z,2.20
2018-09-26T03:27:49.503Z,2.60
2018-09-26T03:37:54.313Z,2.42
2018-09-26T03:47:57.536Z,2.05
2018-09-26T03:58:00.616Z,2.40
2018-09-26T04:08:04.812Z,2.43
2018-09-26T04:18:08.377Z,3.30
2018-09-26T04:28:11.608Z,2.45
2018-09-26T04:38:16.545Z,3.20
2018-09-26T04:48:19.896Z,3.23
2018-09-26T04:58:23.706Z,2.40
2018-09-26T05:08:27.053Z,3.00
2018-09-26T05:18:30.037Z,2.90
2018-09-26T05:28:33.161Z,2.97
2018-09-26T05:38:36.257Z,3.22
2018-09-26T05:48:39.677Z,3.50
2018-09-26T05:58:42.752Z,3.23
2018-09-26T06:08:46.652Z,3.30
2018-09-26T06:18:49.746Z,3.43
2018-09-26T06:28:53.656Z,2.87
2018-09-26T06:38:56.770Z,3.27
2018-09-26T06:49:00.328Z,5.78
2018-09-26T06:59:03.629Z,6.77
2018-09-26T07:09:08.256Z,5.40
2018-09-26T07:19:11.332Z,5.42
2018-09-26T07:29:14.466Z,4.07
2018-09-26T07:39:17.875Z,3.50
2018-09-26T07:49:21.027Z,3.30
2018-09-26T07:59:24.144Z,3.73
2018-09-26T08:09:27.248Z,3.10
2018-09-26T08:19:30.414Z,2.30
2018-09-26T08:29:33.535Z,2.80
2018-09-26T08:39:36.703Z,2.63
2018-09-26T08:49:39.882Z,2.60
2018-09-26T08:59:43.097Z,2.40
2018-09-26T09:09:46.178Z,2.73
2018-09-26T09:19:49.264Z,2.47
2018-09-26T09:29:52.340Z,2.27
2018-09-26T09:39:55.472Z,3.03
2018-09-26T09:49:58.489Z,10.33
2018-09-26T10:00:01.620Z,15.90
2018-09-26T10:10:04.799Z,7.07
2018-09-26T10:20:07.908Z,6.30
2018-09-26T10:30:10.941Z,4.37
2018-09-26T10:40:14.200Z,4.30
2018-09-26T10:50:17.500Z,3.93
2018-09-26T11:00:20.457Z,5.23
2018-09-26T11:10:23.623Z,5.43
2018-09-26T11:20:26.666Z,7.07
2018-09-26T11:30:29.997Z,6.63
2018-09-26T11:40:33.054Z,4.40
2018-09-26T11:50:36.204Z,2.50
2018-09-26T12:00:39.320Z,2.70
2018-09-26T12:10:42.379Z,2.12
2018-09-26T12:20:45.421Z,1.80
2018-09-26T12:30:48.530Z,2.03
2018-09-26T12:45:29.438Z,1.23
2018-09-26T12:55:32.555Z,2.30
2018-09-26T13:05:35.659Z,3.23
2018-09-26T13:15:39.853Z,1.97
2018-09-26T13:25:43.021Z,2.67
2018-09-26T13:35:46.013Z,2.50
2018-09-26T13:45:49.301Z,1.87
2018-09-26T13:55:52.491Z,1.80
2018-09-26T14:05:55.663Z,2.30
2018-09-26T14:15:58.800Z,2.62
2018-09-26T14:26:02.453Z,1.80
2018-09-26T14:36:05.800Z,2.27
2018-09-26T14:46:09.188Z,4.43
2018-09-26T14:56:12.496Z,4.83
2018-09-26T15:06:16.002Z,5.28
2018-09-26T15:16:19.446Z,3.73
2018-09-26T15:26:22.659Z,1.92
2018-09-26T15:36:26.055Z,3.07
2018-09-26T15:46:29.611Z,2.23
2018-09-26T15:56:33.046Z,2.10
2018-09-26T16:06:36.272Z,3.27
2018-09-26T16:16:39.324Z,2.83
2018-09-26T16:26:42.484Z,5.33
2018-09-26T16:36:45.965Z,3.53
2018-09-26T16:46:48.977Z,2.87
2018-09-26T16:56:52.169Z,2.13
2018-09-26T17:06:55.818Z,1.67
2018-09-26T17:16:58.827Z,1.73
2018-09-26T17:27:02.054Z,1.87
2018-09-26T17:37:05.189Z,1.93
2018-09-26T17:47:08.362Z,2.00
2018-09-26T17:57:11.543Z,1.60
2018-09-26T18:07:14.744Z,2.53
2018-09-26T18:17:18.016Z,2.47
2018-09-26T18:27:21.412Z,3.00
2018-09-26T18:37:34.744Z,3.50
2018-09-26T18:47:38.236Z,3.57
2018-09-26T18:57:41.312Z,2.50
2018-09-26T19:07:44.436Z,3.30
2018-09-26T19:17:47.567Z,4.47
2018-09-26T19:27:50.742Z,4.13
2018-09-26T19:37:53.853Z,5.87
2018-09-26T19:47:57.260Z,4.83
2018-09-26T19:58:00.344Z,7.03
2018-09-26T20:08:03.466Z,3.95
2018-09-26T20:18:06.541Z,3.20
2018-09-26T20:28:09.537Z,4.10
2018-09-26T20:38:12.759Z,3.10
2018-09-26T20:48:15.774Z,3.33
2018-09-26T21:04:27.149Z,2.93
2018-09-26T21:14:31.360Z,3.20
2018-09-26T21:24:34.544Z,2.95
2018-09-26T21:34:38.159Z,3.63
2018-09-26T21:44:42.554Z,3.10
2018-09-26T21:54:46.054Z,3.30
2018-09-26T22:04:49.771Z,2.73
2018-09-26T22:14:52.813Z,3.52
2018-09-26T22:24:56.311Z,2.67
2018-09-26T22:35:00.675Z,2.90
2018-09-26T22:45:03.962Z,3.20
2018-09-26T22:55:07.226Z,2.98
2018-09-26T23:05:10.911Z,2.63
2018-09-26T23:15:14.711Z,2.80
2018-09-26T23:25:18.548Z,2.90
2018-09-26T23:35:22.194Z,2.60
2018-09-26T23:45:26.149Z,2.67
2018-09-26T23:55:29.706Z,2.60
